Time;durP1;ratioP1;P1;durP2;ratioP2;P2;SDS_P1;SDS_P2;PMS_P1;PMS_P2;Temp;Humidity;BMP_temperature;BMP_pressure;BME280_temperature;BME280_humidity;BME280_pressure;Samples;Min_cycle;Max_cycle;Signal;HPM_P1;HPM_P2
2022/07/19 00:00:16;;;;;;;0.52;0.10;;;19.30;80.90;;;;;;4945595;28;20427;-77
2022/07/19 00:02:43;;;;;;;1.65;0.28;;;19.40;80.70;;;;;;4947464;28;20110;-78
2022/07/19 00:05:12;;;;;;;1.35;0.20;;;19.70;80.90;;;;;;4944160;28;20064;-76
2022/07/19 00:07:39;;;;;;;0.40;0.10;;;19.80;79.80;;;;;;4943257;28;20038;-75
2022/07/19 00:10:09;;;;;;;2.03;0.20;;;20.00;81.00;;;;;;4943996;28;20094;-76
2022/07/19 00:12:38;;;;;;;0.40;0.20;;;20.10;80.20;;;;;;4947620;28;20047;-76
2022/07/19 00:15:08;;;;;;;0.20;0.10;;;20.30;78.90;;;;;;4945177;28;20031;-75
2022/07/19 00:17:38;;;;;;;4.80;0.30;;;20.40;79.40;;;;;;4948991;28;20142;-76
2022/07/19 00:20:11;;;;;;;1.77;0.47;;;20.60;79.00;;;;;;4948611;28;20038;-75
2022/07/19 00:22:38;;;;;;;0.70;0.20;;;20.80;78.50;;;;;;4942348;28;20304;-75
2022/07/19 00:25:06;;;;;;;2.05;0.63;;;20.80;78.90;;;;;;4949417;28;20030;-76
2022/07/19 00:27:34;;;;;;;1.90;0.20;;;20.70;77.60;;;;;;4949005;28;20478;-76
2022/07/19 00:30:02;;;;;;;2.10;0.32;;;20.80;78.00;;;;;;4946676;28;20031;-76
2022/07/19 00:32:30;;;;;;;2.30;0.75;;;21.10;77.70;;;;;;4945445;28;20038;-77
2022/07/19 00:34:57;;;;;;;0.85;0.10;;;21.20;77.50;;;;;;4947410;28;20046;-76
2022/07/19 00:37:25;;;;;;;0.50;0.20;;;21.40;77.70;;;;;;4946017;28;20031;-77
2022/07/19 00:39:53;;;;;;;1.27;0.28;;;21.90;77.70;;;;;;4952941;28;20031;-77
2022/07/19 00:42:20;;;;;;;2.55;0.38;;;22.00;76.30;;;;;;4948659;28;20031;-80
2022/07/19 00:44:48;;;;;;;2.55;0.20;;;22.00;77.00;;;;;;4943387;28;20023;-76
2022/07/19 00:47:15;;;;;;;0.35;0.10;;;22.40;77.40;;;;;;4921018;28;20031;-78
2022/07/19 00:49:43;;;;;;;1.85;0.20;;;22.20;76.10;;;;;;4942247;28;20031;-78
2022/07/19 00:52:10;;;;;;;0.80;0.20;;;22.50;75.90;;;;;;4941079;28;20121;-77
2022/07/19 00:54:41;;;;;;;1.33;0.20;;;22.50;75.90;;;;;;4937836;28;20106;-76
2022/07/19 00:57:10;;;;;;;1.45;0.50;;;22.40;76.30;;;;;;4938513;28;20065;-75
2022/07/19 00:59:37;;;;;;;0.38;0.15;;;22.50;75.90;;;;;;4946426;28;20042;-75
2022/07/19 01:02:05;;;;;;;1.75;0.20;;;22.60;75.10;;;;;;4948308;28;20023;-76
2022/07/19 01:04:33;;;;;;;1.58;0.30;;;22.70;75.00;;;;;;4946528;28;20604;-76
2022/07/19 01:07:01;;;;;;;0.93;0.20;;;22.50;74.90;;;;;;4944027;28;20027;-78
2022/07/19 01:09:28;;;;;;;0.73;0.20;;;22.60;74.70;;;;;;4948821;28;20038;-78
2022/07/19 01:11:56;;;;;;;0.80;0.43;;;22.80;75.60;;;;;;4940293;28;20034;-77
2022/07/19 01:14:24;;;;;;;3.17;0.20;;;22.80;74.90;;;;;;4929343;28;20054;-77
2022/07/19 01:16:51;;;;;;;0.20;0.10;;;23.10;75.50;;;;;;4944795;28;20063;-77
2022/07/19 01:19:18;;;;;;;0.63;0.30;;;23.40;74.40;;;;;;4956823;28;20027;-77
2022/07/19 01:21:47;;;;;;;0.38;0.20;;;23.80;75.10;;;;;;4949031;28;22363;-79
2022/07/19 01:24:14;;;;;;;3.42;0.52;;;24.00;74.00;;;;;;4936588;28;20046;-78
2022/07/19 01:26:41;;;;;;;0.47;0.20;;;23.80;74.00;;;;;;4953772;28;20035;-78
2022/07/19 01:29:14;;;;;;;0.70;0.10;;;23.70;74.60;;;;;;4950862;28;20031;-80
2022/07/19 01:31:41;;;;;;;0.98;0.20;;;23.70;74.30;;;;;;4948629;28;20043;-79
2022/07/19 01:34:09;;;;;;;1.38;0.57;;;23.70;74.60;;;;;;4949197;28;20071;-75
2022/07/19 01:36:36;;;;;;;0.40;0.10;;;23.70;73.60;;;;;;4935949;28;20069;-79
2022/07/19 01:39:04;;;;;;;0.82;0.10;;;23.80;73.80;;;;;;4952352;28;20026;-77
2022/07/19 01:41:31;;;;;;;0.55;0.10;;;24.10;73.30;;;;;;4936768;28;20134;-78
2022/07/19 01:43:59;;;;;;;2.20;0.20;;;24.00;74.00;;;;;;4937725;28;20041;-79
2022/07/19 01:46:26;;;;;;;1.38;0.30;;;23.30;74.60;;;;;;4934675;28;20027;-77
2022/07/19 01:48:54;;;;;;;0.20;0.20;;;22.10;75.30;;;;;;4939060;28;20101;-77
2022/07/19 01:51:21;;;;;;;0.65;0.65;;;20.90;77.30;;;;;;4948796;28;20119;-78
2022/07/19 01:53:48;;;;;;;0.75;0.10;;;19.90;80.20;;;;;;4939516;28;20106;-80
2022/07/19 01:56:16;;;;;;;1.70;0.22;;;19.20;80.80;;;;;;4941520;28;20050;-79
2022/07/19 01:58:43;;;;;;;2.92;0.17;;;18.80;82.20;;;;;;4943713;28;20386;-80
2022/07/19 02:01:10;;;;;;;0.90;0.10;;;18.30;83.10;;;;;;4944588;28;20031;-82
2022/07/19 02:03:38;;;;;;;0.30;0.10;;;17.90;83.80;;;;;;4953072;28;20338;-81
2022/07/19 02:06:05;;;;;;;0.10;0.00;;;17.80;84.50;;;;;;4941361;28;20023;-81
2022/07/19 02:08:33;;;;;;;1.15;0.10;;;17.90;85.50;;;;;;4937515;28;20034;-80
2022/07/19 02:11:34;;;;;;;2.85;0.40;;;18.10;85.60;;;;;;4944197;28;20039;-80
2022/07/19 02:13:48;;;;;;;0.20;0.10;;;18.80;84.30;;;;;;4944371;28;20035;-79
2022/07/19 02:16:15;;;;;;;0.73;0.10;;;19.40;83.00;;;;;;4945361;28;20107;-76
2022/07/19 02:18:43;;;;;;;0.32;0.10;;;19.30;82.60;;;;;;4944169;28;20043;-78
2022/07/19 02:21:11;;;;;;;0.25;0.08;;;19.00;83.50;;;;;;4937567;28;20218;-76
2022/07/19 02:23:38;;;;;;;0.50;0.10;;;18.80;83.80;;;;;;4944932;28;20038;-79
2022/07/19 02:26:05;;;;;;;0.30;0.10;;;18.00;84.90;;;;;;4944030;28;20034;-80
2022/07/19 02:28:33;;;;;;;0.60;0.40;;;17.50;86.90;;;;;;4947712;28;20023;-77
2022/07/19 02:31:00;;;;;;;0.50;0.10;;;17.00;87.40;;;;;;4942228;28;20035;-80
2022/07/19 02:33:28;;;;;;;1.25;0.00;;;16.80;88.70;;;;;;4945142;28;20035;-79
2022/07/19 02:35:55;;;;;;;0.63;0.10;;;16.60;88.40;;;;;;4950469;28;20126;-77
2022/07/19 02:38:23;;;;;;;0.38;0.05;;;16.40;89.50;;;;;;4949259;28;20050;-77
2022/07/19 02:40:51;;;;;;;0.32;0.08;;;16.20;90.00;;;;;;4944729;28;20122;-77
2022/07/19 02:43:18;;;;;;;2.05;0.10;;;16.10;90.20;;;;;;4946335;28;20031;-79
2022/07/19 02:45:45;;;;;;;0.57;0.20;;;16.00;90.60;;;;;;4947602;28;20097;-80
2022/07/19 02:48:13;;;;;;;1.85;0.20;;;15.90;90.70;;;;;;4947492;28;20035;-81
2022/07/19 02:50:41;;;;;;;0.52;0.10;;;16.00;90.80;;;;;;4953695;28;20030;-78
2022/07/19 02:53:08;;;;;;;0.43;0.10;;;16.10;90.90;;;;;;4949446;28;20093;-78
2022/07/19 02:55:36;;;;;;;2.25;0.10;;;16.20;90.70;;;;;;4948457;28;20082;-79
2022/07/19 02:58:04;;;;;;;0.55;0.05;;;16.20;90.60;;;;;;4962380;28;20668;-76
2022/07/19 03:00:31;;;;;;;0.13;0.10;;;16.20;90.70;;;;;;4949580;28;20377;-81
2022/07/19 03:05:46;;;;;;;0.85;0.17;;;16.20;90.80;;;;;;4950931;28;20034;-81
2022/07/19 03:08:13;;;;;;;2.67;0.30;;;16.20;91.10;;;;;;4948350;28;20465;-78
2022/07/19 03:10:41;;;;;;;0.65;0.15;;;16.30;91.00;;;;;;4943056;28;20557;-78
2022/07/19 03:13:08;;;;;;;0.73;0.20;;;16.20;91.00;;;;;;4946090;28;20031;-82
2022/07/19 03:15:36;;;;;;;0.10;0.00;;;16.10;91.00;;;;;;4947873;28;20386;-83
2022/07/19 03:18:05;;;;;;;1.55;0.30;;;16.10;91.30;;;;;;4949683;28;20073;-80
2022/07/19 03:20:32;;;;;;;0.38;0.03;;;16.00;91.40;;;;;;4947670;28;20094;-79
2022/07/19 03:23:00;;;;;;;1.27;0.20;;;15.90;91.60;;;;;;4938927;28;20027;-78
2022/07/19 03:25:27;;;;;;;0.65;0.20;;;15.90;91.60;;;;;;4956966;28;20057;-76
2022/07/19 03:27:55;;;;;;;1.75;0.13;;;15.80;91.60;;;;;;4943640;28;20114;-82
2022/07/19 03:30:22;;;;;;;0.05;0.00;;;15.70;91.70;;;;;;4946480;28;20041;-79
2022/07/19 03:32:50;;;;;;;0.20;0.20;;;15.70;91.80;;;;;;4949928;28;20050;-77
2022/07/19 03:35:17;;;;;;;2.67;0.10;;;15.70;92.00;;;;;;4946989;28;20049;-78
2022/07/19 03:37:45;;;;;;;0.05;0.05;;;15.60;92.30;;;;;;4950438;28;20409;-78
2022/07/19 03:40:13;;;;;;;0.70;0.10;;;15.40;92.30;;;;;;4954053;28;20031;-77
2022/07/19 03:42:40;;;;;;;0.20;0.00;;;15.50;92.70;;;;;;4949556;28;20072;-77
2022/07/19 03:45:08;;;;;;;0.70;0.52;;;15.70;92.70;;;;;;4962865;28;20022;-77
2022/07/19 03:47:36;;;;;;;1.88;0.10;;;15.80;92.60;;;;;;4949368;28;20023;-78
2022/07/19 03:50:04;;;;;;;1.55;0.20;;;15.80;92.30;;;;;;4950298;28;20039;-77
2022/07/19 03:52:32;;;;;;;0.10;0.00;;;15.80;92.80;;;;;;4947570;28;20039;-75
2022/07/19 03:54:59;;;;;;;0.05;0.03;;;15.50;93.60;;;;;;4949234;28;20509;-78
2022/07/19 03:57:27;;;;;;;0.73;0.00;;;15.20;94.50;;;;;;4957042;28;20041;-78
2022/07/19 03:59:54;;;;;;;0.00;0.00;;;15.20;95.30;;;;;;4945175;28;20038;-76
2022/07/19 04:02:21;;;;;;;0.45;0.10;;;15.30;95.70;;;;;;4942935;28;20478;-78
2022/07/19 04:04:49;;;;;;;0.82;0.40;;;15.40;95.10;;;;;;4956210;28;20027;-78
2022/07/19 04:07:16;;;;;;;0.00;0.00;;;15.40;94.60;;;;;;4944232;28;20043;-77
2022/07/19 04:09:43;;;;;;;0.30;0.05;;;15.50;94.30;;;;;;4942707;28;20082;-75
2022/07/19 04:12:11;;;;;;;0.68;0.10;;;15.60;94.40;;;;;;4946982;28;20071;-78
2022/07/19 04:14:38;;;;;;;1.90;0.30;;;15.60;94.10;;;;;;4953036;28;20038;-78
2022/07/19 04:17:06;;;;;;;0.10;0.10;;;15.60;93.80;;;;;;4948378;28;20046;-76
2022/07/19 04:19:35;;;;;;;0.40;0.28;;;15.50;93.50;;;;;;4947063;28;20035;-76
2022/07/19 04:22:02;;;;;;;4.03;0.95;;;15.50;94.20;;;;;;4944144;28;20066;-76
2022/07/19 04:24:30;;;;;;;0.30;0.10;;;15.50;94.00;;;;;;4945041;28;20035;-78
2022/07/19 04:26:57;;;;;;;0.20;0.10;;;15.30;94.30;;;;;;4949772;28;20054;-78
2022/07/19 04:29:25;;;;;;;0.80;0.10;;;15.30;94.40;;;;;;4944113;28;20034;-78
2022/07/19 04:31:52;;;;;;;0.10;0.10;;;15.30;94.40;;;;;;4942360;28;20126;-78
2022/07/19 04:34:19;;;;;;;0.28;0.20;;;15.40;94.70;;;;;;4944247;28;20513;-78
2022/07/19 04:36:47;;;;;;;0.75;0.52;;;15.40;94.10;;;;;;4944749;28;20109;-77
2022/07/19 04:39:14;;;;;;;1.10;0.20;;;15.30;94.50;;;;;;4940070;28;20504;-77
2022/07/19 04:41:42;;;;;;;0.28;0.15;;;15.30;94.60;;;;;;4943132;28;20037;-77
2022/07/19 04:44:09;;;;;;;0.20;0.10;;;15.20;94.80;;;;;;4944231;28;20362;-78
2022/07/19 04:46:36;;;;;;;0.40;0.10;;;15.10;94.90;;;;;;4940222;28;20151;-78
2022/07/19 04:49:04;;;;;;;0.52;0.10;;;15.10;95.00;;;;;;4952262;28;20034;-76
2022/07/19 04:51:31;;;;;;;0.60;0.10;;;15.00;95.00;;;;;;4942401;28;20082;-77
2022/07/19 04:53:59;;;;;;;0.20;0.20;;;14.90;95.60;;;;;;4954967;28;20043;-76
2022/07/19 04:56:26;;;;;;;0.20;0.00;;;14.80;95.50;;;;;;4953941;28;20059;-77
2022/07/19 04:58:53;;;;;;;1.17;0.10;;;14.80;95.50;;;;;;4955627;28;20070;-78
2022/07/19 05:01:21;;;;;;;0.20;0.10;;;14.80;95.80;;;;;;4946578;28;20382;-76
2022/07/19 05:03:48;;;;;;;0.30;0.15;;;14.80;95.70;;;;;;4947882;28;20070;-78
2022/07/19 05:06:16;;;;;;;0.00;0.00;;;14.90;95.50;;;;;;4946450;28;20035;-76
2022/07/19 05:08:44;;;;;;;0.00;0.00;;;15.00;95.40;;;;;;4949781;28;20481;-78
2022/07/19 05:11:11;;;;;;;0.32;0.10;;;15.00;95.40;;;;;;4934156;28;20035;-76
2022/07/19 05:13:39;;;;;;;0.90;0.03;;;15.00;95.30;;;;;;4947479;28;20027;-77
2022/07/19 05:16:06;;;;;;;0.95;0.10;;;15.00;95.30;;;;;;4941975;28;20043;-77
2022/07/19 05:18:34;;;;;;;0.15;0.03;;;15.00;95.40;;;;;;4942069;28;20098;-76
2022/07/19 05:21:02;;;;;;;3.83;0.43;;;14.90;95.60;;;;;;4952352;28;20097;-77
2022/07/19 05:23:29;;;;;;;3.78;0.15;;;14.70;96.10;;;;;;4952769;28;20035;-77
2022/07/19 05:25:56;;;;;;;1.27;0.15;;;14.60;96.60;;;;;;4951530;28;20040;-75
2022/07/19 05:28:24;;;;;;;1.35;0.10;;;14.40;97.10;;;;;;4942034;28;20047;-77
2022/07/19 05:30:51;;;;;;;2.92;0.38;;;14.30;97.60;;;;;;4940010;28;20038;-79
2022/07/19 05:33:19;;;;;;;0.15;0.10;;;14.20;98.20;;;;;;4942349;28;20050;-77
2022/07/19 05:35:46;;;;;;;0.20;0.10;;;14.10;98.50;;;;;;4943926;28;20109;-79
2022/07/19 05:38:14;;;;;;;0.00;0.00;;;14.00;99.00;;;;;;4950410;28;20057;-79
2022/07/19 05:40:41;;;;;;;0.32;0.22;;;13.90;99.90;;;;;;4928499;28;20027;-78
2022/07/19 05:43:08;;;;;;;0.40;0.40;;;13.80;99.90;;;;;;4953400;28;20030;-80
2022/07/19 05:45:36;;;;;;;1.08;0.30;;;13.70;99.90;;;;;;4948124;28;20363;-79
2022/07/19 05:48:03;;;;;;;5.97;2.42;;;13.60;99.90;;;;;;4944479;28;20482;-79
2022/07/19 05:50:31;;;;;;;1.33;0.50;;;13.70;99.90;;;;;;4950827;28;20106;-79
2022/07/19 05:52:58;;;;;;;3.45;0.60;;;13.60;99.90;;;;;;4948924;28;20593;-79
2022/07/19 05:55:26;;;;;;;0.90;0.47;;;13.40;99.90;;;;;;4947467;28;20109;-78
2022/07/19 05:57:54;;;;;;;0.60;0.20;;;13.30;99.90;;;;;;4945968;28;20047;-78
2022/07/19 06:00:21;;;;;;;0.00;0.00;;;13.10;99.90;;;;;;4952346;28;20486;-79
2022/07/19 06:02:49;;;;;;;1.63;0.10;;;13.10;99.90;;;;;;4946847;28;20035;-79
2022/07/19 06:05:16;;;;;;;0.25;0.25;;;12.90;99.90;;;;;;4947717;28;20027;-79
2022/07/19 06:07:43;;;;;;;3.35;0.20;;;12.80;99.90;;;;;;4935165;28;20035;-79
2022/07/19 06:10:11;;;;;;;0.25;0.05;;;12.70;99.90;;;;;;4948351;28;20035;-79
2022/07/19 06:12:39;;;;;;;0.30;0.10;;;12.70;99.90;;;;;;4946551;28;20028;-78
2022/07/19 06:15:07;;;;;;;1.85;0.10;;;12.70;99.90;;;;;;4931855;28;20235;-80
2022/07/19 06:17:34;;;;;;;0.30;0.20;;;12.60;99.90;;;;;;4932718;28;20061;-81
2022/07/19 06:20:02;;;;;;;1.33;0.20;;;12.60;99.90;;;;;;4940903;28;20105;-77
2022/07/19 06:22:33;;;;;;;3.95;1.48;;;12.60;99.90;;;;;;4946628;28;20493;-82
2022/07/19 06:25:00;;;;;;;5.68;1.48;;;12.60;99.90;;;;;;4948691;28;20038;-78
2022/07/19 06:27:28;;;;;;;2.80;1.35;;;12.60;99.90;;;;;;4945866;28;20027;-77
2022/07/19 06:29:55;;;;;;;9.95;3.67;;;12.50;99.90;;;;;;4944893;28;20035;-80
2022/07/19 06:32:23;;;;;;;14.77;8.75;;;12.30;99.90;;;;;;4945263;28;20031;-80
2022/07/19 06:34:50;;;;;;;7.43;6.25;;;12.30;99.90;;;;;;4948044;28;20054;-82
2022/07/19 06:37:17;;;;;;;3.45;2.58;;;12.20;99.90;;;;;;4951096;28;20151;-83
2022/07/19 06:39:45;;;;;;;0.57;0.22;;;12.20;99.90;;;;;;4950269;28;20031;-79
2022/07/19 06:42:12;;;;;;;1.55;0.30;;;12.20;99.90;;;;;;4947036;28;20423;-76
2022/07/19 06:44:39;;;;;;;0.50;0.25;;;12.20;99.90;;;;;;4945262;28;20027;-77
2022/07/19 06:47:07;;;;;;;1.23;0.40;;;12.20;99.90;;;;;;4928570;28;20115;-76
2022/07/19 06:49:34;;;;;;;0.32;0.10;;;12.10;99.90;;;;;;4951121;28;20023;-79
2022/07/19 06:52:02;;;;;;;0.85;0.20;;;12.10;99.90;;;;;;4940191;28;20327;-77
2022/07/19 06:54:30;;;;;;;0.55;0.20;;;12.10;99.90;;;;;;4939253;28;20031;-85
2022/07/19 06:56:57;;;;;;;0.00;0.00;;;12.00;99.90;;;;;;4937881;28;20058;-77
2022/07/19 06:59:25;;;;;;;0.32;0.15;;;12.10;99.90;;;;;;4912176;28;20375;-79
2022/07/19 07:01:52;;;;;;;0.20;0.10;;;12.10;99.90;;;;;;4939190;28;20492;-77
2022/07/19 07:04:20;;;;;;;0.08;0.08;;;12.00;99.90;;;;;;4935070;28;20042;-77
2022/07/19 07:06:47;;;;;;;0.82;0.30;;;12.10;99.90;;;;;;4944741;28;20390;-80
2022/07/19 07:09:15;;;;;;;1.15;0.20;;;12.10;99.90;;;;;;4951138;28;20027;-81
2022/07/19 07:11:43;;;;;;;1.70;0.20;;;12.00;99.90;;;;;;4957212;28;20042;-79
2022/07/19 07:14:10;;;;;;;0.82;0.20;;;12.00;99.90;;;;;;4950742;28;21842;-76
2022/07/19 07:16:38;;;;;;;2.40;0.20;;;11.90;99.90;;;;;;4951569;28;20107;-78
2022/07/19 07:19:05;;;;;;;0.50;0.10;;;11.80;99.90;;;;;;4945464;28;20106;-78
2022/07/19 07:21:35;;;;;;;0.65;0.20;;;11.80;99.90;;;;;;4944555;28;20058;-79
2022/07/19 07:24:03;;;;;;;1.02;0.50;;;11.80;99.90;;;;;;4943665;28;20046;-79
2022/07/19 07:26:31;;;;;;;0.13;0.10;;;11.70;99.90;;;;;;4946822;28;20031;-79
2022/07/19 07:28:59;;;;;;;0.50;0.20;;;11.70;99.90;;;;;;4942090;28;20120;-78
2022/07/19 07:31:27;;;;;;;0.60;0.20;;;11.70;99.90;;;;;;4943855;28;20023;-77
2022/07/19 07:33:54;;;;;;;1.33;0.45;;;11.70;99.90;;;;;;4949971;28;20047;-79
2022/07/19 07:36:21;;;;;;;0.43;0.13;;;11.70;99.90;;;;;;4944535;28;20070;-79
2022/07/19 07:38:49;;;;;;;1.65;0.20;;;11.70;99.90;;;;;;4948359;28;20149;-79
2022/07/19 07:41:16;;;;;;;0.50;0.30;;;11.70;99.90;;;;;;4938691;28;20110;-79
2022/07/19 07:43:44;;;;;;;0.85;0.38;;;11.60;99.90;;;;;;4948832;28;20747;-77
2022/07/19 07:46:11;;;;;;;1.58;0.30;;;11.60;99.90;;;;;;4950262;28;20027;-80
2022/07/19 07:48:39;;;;;;;2.40;0.82;;;11.60;99.90;;;;;;4947420;28;20035;-80
2022/07/19 07:51:06;;;;;;;2.33;0.80;;;11.60;99.90;;;;;;4952811;28;20366;-80
2022/07/19 07:53:33;;;;;;;2.53;1.00;;;11.60;99.90;;;;;;4951819;28;20027;-77
2022/07/19 07:56:01;;;;;;;1.48;0.43;;;11.60;99.90;;;;;;4959264;28;20530;-81
2022/07/19 07:58:28;;;;;;;0.47;0.30;;;11.60;99.90;;;;;;4960627;28;20035;-78
2022/07/19 08:00:56;;;;;;;0.75;0.30;;;11.60;99.90;;;;;;4958378;28;20058;-83
2022/07/19 08:03:23;;;;;;;0.80;0.25;;;11.50;99.90;;;;;;4952179;28;20035;-76
2022/07/19 08:05:50;;;;;;;3.75;1.08;;;11.50;99.90;;;;;;4951911;28;20743;-79
2022/07/19 08:08:18;;;;;;;0.90;0.70;;;11.50;99.90;;;;;;4961782;28;20034;-81
2022/07/19 08:10:46;;;;;;;4.50;0.50;;;11.50;99.90;;;;;;4959751;28;20071;-79
2022/07/19 08:13:13;;;;;;;0.55;0.30;;;11.50;99.90;;;;;;4949975;28;20106;-81
2022/07/19 08:15:40;;;;;;;2.05;0.40;;;11.50;99.90;;;;;;4951059;28;20386;-79
2022/07/19 08:18:08;;;;;;;1.58;0.28;;;11.40;99.90;;;;;;4941396;28;20130;-80
2022/07/19 08:20:35;;;;;;;0.98;0.47;;;11.40;99.90;;;;;;4938090;28;20028;-80
2022/07/19 08:23:03;;;;;;;2.20;0.50;;;11.40;99.90;;;;;;4952382;28;20035;-80
2022/07/19 08:25:32;;;;;;;0.73;0.60;;;11.40;99.90;;;;;;4946895;28;20033;-80
2022/07/19 08:27:59;;;;;;;0.55;0.30;;;11.40;99.90;;;;;;4950403;28;20126;-80
2022/07/19 08:30:27;;;;;;;0.47;0.30;;;11.40;99.90;;;;;;4953310;28;20031;-79
2022/07/19 08:32:54;;;;;;;2.17;0.50;;;11.40;99.90;;;;;;4952005;28;20055;-79
2022/07/19 08:35:22;;;;;;;2.95;0.68;;;11.40;99.90;;;;;;4951817;28;20031;-81
2022/07/19 08:37:49;;;;;;;0.50;0.40;;;11.40;99.90;;;;;;4935300;28;20165;-79
2022/07/19 08:40:16;;;;;;;0.52;0.50;;;11.40;99.90;;;;;;4940955;28;20033;-78
2022/07/19 08:42:46;;;;;;;1.10;0.50;;;11.30;99.90;;;;;;4935431;28;20225;-78
2022/07/19 08:45:14;;;;;;;2.90;0.70;;;11.30;99.90;;;;;;4938064;28;20034;-78
2022/07/19 08:47:44;;;;;;;2.05;1.00;;;11.30;99.90;;;;;;4936392;28;20715;-78
2022/07/19 08:50:12;;;;;;;1.65;0.60;;;11.30;99.90;;;;;;4943094;28;20064;-81
2022/07/19 08:52:40;;;;;;;1.63;0.68;;;11.40;99.90;;;;;;4930143;28;20090;-79
2022/07/19 08:55:08;;;;;;;1.23;0.60;;;11.40;99.90;;;;;;4938525;28;20133;-79
2022/07/19 08:57:57;;;;;;;2.20;0.60;;;11.40;99.90;;;;;;4936059;28;20075;-79
2022/07/19 09:00:27;;;;;;;1.23;0.87;;;11.40;99.90;;;;;;4948173;28;20042;-79
2022/07/19 09:02:59;;;;;;;1.77;0.80;;;11.30;99.90;;;;;;4951342;28;20304;-84
2022/07/19 09:05:27;;;;;;;1.65;0.60;;;11.40;99.90;;;;;;4938844;28;20031;-78
2022/07/19 09:08:13;;;;;;;3.47;0.70;;;11.40;99.90;;;;;;4933068;28;20134;-78
2022/07/19 09:10:44;;;;;;;0.57;0.40;;;11.30;99.90;;;;;;4913794;28;20086;-78
2022/07/19 09:13:17;;;;;;;2.10;1.27;;;11.30;99.90;;;;;;4935203;28;20063;-78
2022/07/19 09:15:47;;;;;;;5.50;0.90;;;11.30;99.90;;;;;;4934734;28;20027;-78
2022/07/19 09:18:17;;;;;;;1.08;0.43;;;11.30;99.90;;;;;;4934778;28;20114;-79
2022/07/19 09:20:45;;;;;;;1.65;0.60;;;11.30;99.90;;;;;;4937564;28;20489;-79
2022/07/19 09:23:13;;;;;;;0.77;0.50;;;11.30;99.90;;;;;;4940614;28;20439;-77
2022/07/19 09:25:44;;;;;;;3.10;0.47;;;11.20;99.90;;;;;;4938285;28;20043;-78
2022/07/19 09:28:12;;;;;;;0.32;0.30;;;11.20;99.90;;;;;;4939851;28;20036;-80
2022/07/19 09:30:48;;;;;;;1.08;0.38;;;11.20;99.90;;;;;;4945669;28;20025;-78
2022/07/19 09:33:25;;;;;;;2.80;0.30;;;11.10;99.90;;;;;;4946638;28;20050;-77
2022/07/19 09:35:56;;;;;;;0.35;0.22;;;11.10;99.90;;;;;;4937585;28;20035;-79
2022/07/19 09:38:27;;;;;;;3.22;0.30;;;11.10;99.90;;;;;;4956309;28;20047;-78
2022/07/19 09:41:15;;;;;;;0.63;0.10;;;11.00;99.90;;;;;;4951189;28;20036;-78
2022/07/19 09:44:05;;;;;;;0.30;0.20;;;11.00;99.90;;;;;;4963581;28;20355;-78
2022/07/19 09:46:44;;;;;;;1.00;0.30;;;11.00;99.90;;;;;;4951415;28;20410;-79
2022/07/19 09:49:17;;;;;;;0.20;0.20;;;10.90;99.90;;;;;;4947627;28;20061;-79
2022/07/19 09:51:46;;;;;;;0.50;0.50;;;10.90;99.90;;;;;;4939842;28;20122;-79
2022/07/19 09:54:17;;;;;;;1.58;0.32;;;10.90;99.90;;;;;;4951098;28;20023;-78
2022/07/19 09:56:46;;;;;;;1.77;0.40;;;10.90;99.90;;;;;;4925479;28;20146;-78
2022/07/19 09:59:14;;;;;;;1.08;0.50;;;10.90;99.90;;;;;;4944684;28;20102;-79
2022/07/19 10:01:43;;;;;;;1.23;0.40;;;10.90;99.90;;;;;;4949516;28;20078;-79
2022/07/19 10:04:13;;;;;;;3.40;0.38;;;10.90;99.90;;;;;;4949354;28;20031;-78
2022/07/19 10:06:43;;;;;;;0.75;0.25;;;10.90;99.90;;;;;;4929426;28;20035;-79
2022/07/19 10:09:13;;;;;;;1.83;0.38;;;10.90;99.90;;;;;;4943490;28;20035;-79
2022/07/19 10:11:40;;;;;;;0.95;0.20;;;10.80;99.90;;;;;;4947632;28;20103;-78
2022/07/19 10:14:09;;;;;;;0.95;0.50;;;10.80;99.90;;;;;;4954457;28;20055;-78
2022/07/19 10:16:44;;;;;;;0.90;0.30;;;10.80;99.90;;;;;;4944024;28;20035;-78
2022/07/19 10:19:31;;;;;;;1.23;0.90;;;10.70;99.90;;;;;;4948019;28;20346;-78
2022/07/19 10:21:59;;;;;;;2.78;0.45;;;10.70;99.90;;;;;;4949655;28;20034;-78
2022/07/19 10:24:47;;;;;;;1.27;0.50;;;10.60;99.90;;;;;;4949570;28;20034;-79
2022/07/19 10:27:35;;;;;;;0.52;0.45;;;10.50;99.90;;;;;;4956488;28;20089;-78
2022/07/19 10:30:14;;;;;;;2.03;0.68;;;10.50;99.90;;;;;;4948248;28;20169;-77
2022/07/19 10:32:47;;;;;;;2.58;0.55;;;10.40;99.90;;;;;;4953105;28;20020;-78
2022/07/19 10:35:30;;;;;;;0.65;0.65;;;10.30;99.90;;;;;;4945604;28;20521;-78
2022/07/19 10:38:06;;;;;;;1.95;0.40;;;10.20;99.90;;;;;;4949012;28;20044;-78
2022/07/19 10:40:40;;;;;;;;;;;10.20;99.90;;;;;;4943743;28;20051;-78
2022/07/19 10:43:10;;;;;;;2.88;0.93;;;10.20;99.90;;;;;;4944120;28;19914;-79
2022/07/19 10:45:40;;;;;;;2.75;0.60;;;10.20;99.90;;;;;;4945547;28;20031;-78
2022/07/19 10:48:14;;;;;;;2.05;1.10;;;10.20;99.90;;;;;;4944400;28;20051;-78
2022/07/19 10:50:51;;;;;;;0.95;0.40;;;10.20;99.90;;;;;;4941754;28;20052;-78
2022/07/19 10:53:42;;;;;;;1.63;0.60;;;10.30;99.90;;;;;;4945819;28;20035;-78
2022/07/19 10:56:20;;;;;;;1.70;0.60;;;10.30;99.90;;;;;;4937418;28;20031;-78
2022/07/19 10:59:02;;;;;;;1.85;0.50;;;10.30;99.90;;;;;;4940932;28;20043;-79
2022/07/19 11:01:33;;;;;;;1.05;0.60;;;10.30;99.90;;;;;;4940756;28;20078;-79
2022/07/19 11:04:29;;;;;;;2.90;1.25;;;10.30;99.90;;;;;;4944308;28;20039;-78
2022/07/19 11:07:15;;;;;;;2.40;0.93;;;10.30;99.90;;;;;;4933722;28;21001;-76
2022/07/19 11:09:53;;;;;;;2.47;0.93;;;10.30;99.90;;;;;;4933607;28;20031;-77
2022/07/19 11:12:36;;;;;;;1.55;1.00;;;10.30;99.90;;;;;;4934267;28;20031;-78
2022/07/19 11:15:09;;;;;;;2.17;1.23;;;10.30;99.90;;;;;;4946133;28;20027;-78
2022/07/19 11:17:37;;;;;;;2.97;1.40;;;10.30;99.90;;;;;;4946149;28;20050;-78
2022/07/19 11:20:16;;;;;;;3.75;1.00;;;10.30;99.90;;;;;;4946704;28;20115;-79
2022/07/19 11:22:48;;;;;;;3.13;1.02;;;10.30;99.90;;;;;;4943609;28;20031;-78
2022/07/19 11:25:23;;;;;;;1.42;0.93;;;10.30;99.90;;;;;;4944530;28;20441;-79
2022/07/19 11:27:50;;;;;;;1.20;1.02;;;10.20;99.90;;;;;;4942507;28;20053;-77
2022/07/19 11:30:20;;;;;;;2.70;1.33;;;10.10;99.90;;;;;;4945092;28;20486;-77
2022/07/19 11:32:56;;;;;;;3.30;1.60;;;10.10;99.90;;;;;;4944561;28;20046;-78
2022/07/19 11:35:25;;;;;;;6.47;1.38;;;10.00;99.90;;;;;;4938712;28;20046;-78
2022/07/19 11:37:57;;;;;;;1.77;1.05;;;10.00;99.90;;;;;;4935570;28;20138;-79
2022/07/19 11:40:32;;;;;;;1.98;1.00;;;10.00;99.90;;;;;;4936609;28;20023;-80
2022/07/19 11:42:59;;;;;;;1.77;0.95;;;9.90;99.90;;;;;;4937992;28;20185;-80
2022/07/19 11:45:28;;;;;;;2.20;1.30;;;10.00;99.90;;;;;;4943085;28;20102;-78
2022/07/19 11:47:57;;;;;;;4.25;1.50;;;10.00;99.90;;;;;;4944230;28;20020;-79
2022/07/19 11:50:27;;;;;;;5.00;1.95;;;10.00;99.90;;;;;;4946711;28;20062;-86
2022/07/19 11:52:55;;;;;;;1.63;1.00;;;10.00;99.90;;;;;;4940824;28;20043;-78
2022/07/19 11:55:26;;;;;;;2.25;0.90;;;10.00;99.90;;;;;;4946324;28;20054;-81
2022/07/19 11:57:55;;;;;;;1.38;0.80;;;9.90;99.90;;;;;;4942538;29;20054;-81
2022/07/19 12:00:22;;;;;;;2.55;1.30;;;9.80;99.90;;;;;;4941360;29;20027;-80
2022/07/19 12:02:58;;;;;;;3.90;0.73;;;9.70;99.90;;;;;;4941263;28;22559;-80
2022/07/19 12:05:27;;;;;;;2.27;0.97;;;9.70;99.90;;;;;;4948665;29;20059;-81
2022/07/19 12:07:57;;;;;;;2.17;0.73;;;9.60;99.90;;;;;;4942112;28;20735;-79
2022/07/19 12:10:43;;;;;;;3.00;0.80;;;9.50;99.90;;;;;;4944753;29;20121;-78
2022/07/19 12:13:27;;;;;;;4.63;0.80;;;9.50;99.90;;;;;;4941397;29;20409;-82
2022/07/19 12:15:57;;;;;;;1.08;0.68;;;9.40;99.90;;;;;;4939637;28;20489;-78
2022/07/19 12:18:44;;;;;;;1.48;1.08;;;9.40;99.90;;;;;;4940381;28;20618;-79
2022/07/19 12:21:40;;;;;;;2.22;0.80;;;9.30;99.90;;;;;;4940479;28;20639;-78
2022/07/19 12:24:15;;;;;;;2.03;0.90;;;9.30;99.90;;;;;;4944467;29;20046;-78
2022/07/19 12:26:45;;;;;;;3.65;1.00;;;9.30;99.90;;;;;;4941655;29;20086;-78
2022/07/19 12:29:49;;;;;;;3.60;1.15;;;9.30;99.90;;;;;;4943504;28;20055;-79
2022/07/19 12:32:35;;;;;;;4.55;0.90;;;9.30;99.90;;;;;;4943549;29;20049;-76
2022/07/19 12:35:04;;;;;;;2.05;0.70;;;9.40;99.90;;;;;;4950761;29;20059;-79
2022/07/19 12:37:35;;;;;;;3.85;0.80;;;9.40;99.90;;;;;;4945678;29;20039;-77
2022/07/19 12:40:21;;;;;;;0.93;0.45;;;9.50;99.90;;;;;;4944250;29;20126;-76
2022/07/19 12:43:03;;;;;;;1.45;0.55;;;9.60;99.90;;;;;;4941541;29;20109;-76
2022/07/19 12:45:41;;;;;;;2.25;0.50;;;9.60;99.90;;;;;;4942242;29;20043;-76
2022/07/19 12:48:10;;;;;;;1.42;0.50;;;9.70;99.90;;;;;;4939781;29;20118;-78
2022/07/19 12:50:42;;;;;;;2.60;0.90;;;9.70;99.90;;;;;;4942611;28;20039;-77
2022/07/19 12:53:12;;;;;;;4.50;0.90;;;9.70;99.90;;;;;;4947113;29;20031;-78
2022/07/19 12:55:43;;;;;;;5.88;1.10;;;9.70;99.90;;;;;;4943967;29;20389;-78
2022/07/19 12:58:11;;;;;;;1.45;0.88;;;9.80;99.90;;;;;;4941064;29;20035;-76
2022/07/19 13:00:43;;;;;;;6.07;2.03;;;9.70;99.90;;;;;;4946647;29;20086;-75
2022/07/19 13:03:10;;;;;;;3.67;1.27;;;9.80;99.90;;;;;;4941272;29;20039;-76